Terminal Aerodrome Forecast
Issued by NWS Blacksburg, VA

Current Version | Previous Version | Graphics & Text | Print | Product List | Glossary On
Versions: 1 2 3 4 5 6 7 8 9 10 11 12 13 14 15 16 17 18 19 20 21 22 23 24 25 26 27 28 29 30 31 32 33 34 35 36 37 38 39 40 41
000
FTUS41 KRNK 191136
TAFBLF
TAF
KBLF 191136Z 1912/2012 14007KT 5SM -RA BR SCT007 OVC015
     FM192000 14006KT P6SM VCSH SCT015 OVC025
      TEMPO 1921/2001 3SM SHRA BR SCT007 OVC015
     FM200400 13004KT 3SM -DZ BR BKN004 OVC012
      TEMPO 2008/2012 1/2SM -DZ FG VV004=

USA.gov is the U.S. government's official web portal to all federal, state and local government web resources and services.